Time;durP1;ratioP1;P1;durP2;ratioP2;P2;SDS_P1;SDS_P2;PMS_P1;PMS_P2;Temp;Humidity;BMP_temperature;BMP_pressure;BME280_temperature;BME280_humidity;BME280_pressure;Samples;Min_cycle;Max_cycle;Signal;HPM_P1;HPM_P2
2022/07/31 00:00:19;;;;;;;2.03;1.45;;;27.70;1.00;;;;;;5094034;28;20032;-46
2022/07/31 00:02:45;;;;;;;1.55;1.45;;;27.60;1.00;;;;;;5113042;28;20103;-46
2022/07/31 00:05:11;;;;;;;1.90;1.30;;;27.60;1.00;;;;;;5106433;28;20020;-44
2022/07/31 00:07:37;;;;;;;1.77;1.60;;;27.60;1.00;;;;;;5092581;28;20457;-45
2022/07/31 00:10:03;;;;;;;3.28;1.85;;;27.60;1.00;;;;;;5080579;28;20036;-48
2022/07/31 00:12:29;;;;;;;3.78;1.83;;;27.60;1.00;;;;;;5080561;28;20062;-45
2022/07/31 00:14:55;;;;;;;2.42;1.38;;;27.50;1.00;;;;;;5111844;28;20055;-44
2022/07/31 00:17:21;;;;;;;4.63;1.55;;;27.50;1.00;;;;;;5083115;28;20104;-44
2022/07/31 00:19:46;;;;;;;2.50;1.55;;;27.50;1.00;;;;;;5095244;28;20134;-45
2022/07/31 00:22:12;;;;;;;1.65;1.55;;;27.50;1.00;;;;;;5101948;28;20103;-45
2022/07/31 00:24:38;;;;;;;1.40;1.30;;;27.40;1.00;;;;;;5107378;28;20638;-49
2022/07/31 00:27:03;;;;;;;2.13;1.40;;;27.40;1.00;;;;;;5112933;28;20030;-51
2022/07/31 00:29:29;;;;;;;1.65;1.50;;;27.40;1.00;;;;;;5110257;28;20096;-50
2022/07/31 00:31:55;;;;;;;2.15;1.60;;;27.40;1.00;;;;;;5104665;28;20477;-47
2022/07/31 00:34:21;;;;;;;1.60;1.50;;;27.40;1.00;;;;;;5111495;28;20099;-48
2022/07/31 00:36:47;;;;;;;1.45;1.35;;;27.30;1.00;;;;;;5112534;28;20133;-46
2022/07/31 00:39:13;;;;;;;1.88;1.40;;;27.30;1.00;;;;;;5112395;28;20024;-45
2022/07/31 00:41:41;;;;;;;2.05;1.85;;;27.30;1.00;;;;;;5111482;28;20035;-45
2022/07/31 00:44:07;;;;;;;2.65;1.60;;;27.30;1.00;;;;;;5112284;28;20400;-48
2022/07/31 00:46:32;;;;;;;1.50;1.40;;;27.30;1.00;;;;;;5111579;28;20027;-45
2022/07/31 00:48:58;;;;;;;3.42;1.83;;;27.30;1.00;;;;;;5111876;28;20024;-45
2022/07/31 00:51:24;;;;;;;3.78;1.40;;;27.20;1.00;;;;;;5111369;28;20028;-47
2022/07/31 00:53:49;;;;;;;1.40;1.33;;;27.20;1.00;;;;;;5112115;28;20027;-46
2022/07/31 00:56:15;;;;;;;2.67;1.50;;;27.20;1.00;;;;;;5093186;28;20049;-44
2022/07/31 00:58:41;;;;;;;1.55;1.35;;;27.20;1.00;;;;;;5111385;28;20035;-45
2022/07/31 01:01:06;;;;;;;2.20;1.33;;;27.10;1.00;;;;;;5097481;28;20062;-45
2022/07/31 01:03:32;;;;;;;1.58;1.40;;;27.20;1.00;;;;;;5111892;28;20027;-44
2022/07/31 01:05:57;;;;;;;1.40;1.30;;;27.10;1.00;;;;;;5110606;28;20055;-44
2022/07/31 01:08:23;;;;;;;1.80;1.50;;;27.10;1.00;;;;;;5111962;28;20023;-46
2022/07/31 01:11:05;;;;;;;2.13;1.30;;;27.10;1.00;;;;;;5110222;28;20107;-47
2022/07/31 01:13:51;;;;;;;1.88;1.73;;;27.00;1.00;;;;;;5110265;28;20035;-47
2022/07/31 01:16:17;;;;;;;2.08;1.88;;;27.00;1.00;;;;;;5109032;28;20035;-45
2022/07/31 01:18:44;;;;;;;2.58;1.50;;;27.00;1.00;;;;;;5110607;28;20016;-45
2022/07/31 01:21:16;;;;;;;1.88;1.42;;;26.80;1.00;;;;;;5109237;28;20020;-45
2022/07/31 01:24:00;;;;;;;1.60;1.50;;;26.80;1.00;;;;;;5094464;28;20028;-45
2022/07/31 01:26:56;;;;;;;1.95;1.60;;;26.70;1.00;;;;;;5097701;28;20031;-45
2022/07/31 01:29:28;;;;;;;2.08;1.38;;;26.80;1.00;;;;;;5098634;28;20031;-48
2022/07/31 01:32:07;;;;;;;1.83;1.73;;;26.80;1.00;;;;;;5109984;28;20083;-48
2022/07/31 01:34:45;;;;;;;1.45;1.23;;;26.60;1.00;;;;;;5110616;28;20077;-46
2022/07/31 01:37:26;;;;;;;2.92;1.30;;;26.70;1.00;;;;;;5106848;28;20027;-46
2022/07/31 01:40:07;;;;;;;2.92;1.27;;;26.70;1.00;;;;;;5110318;28;20032;-45
2022/07/31 01:42:36;;;;;;;1.27;1.23;;;26.70;1.00;;;;;;5090755;28;20052;-45
2022/07/31 01:45:05;;;;;;;1.83;1.42;;;26.70;1.00;;;;;;5104597;28;20099;-45
2022/07/31 01:47:31;;;;;;;3.60;1.25;;;26.70;1.00;;;;;;5097537;28;20023;-45
2022/07/31 01:49:59;;;;;;;1.67;1.33;;;26.70;1.00;;;;;;5106827;28;20516;-47
2022/07/31 01:52:28;;;;;;;1.73;1.20;;;26.60;1.00;;;;;;5110807;28;20039;-47
2022/07/31 01:54:55;;;;;;;3.05;1.42;;;26.60;1.00;;;;;;5109708;28;20016;-45
2022/07/31 01:57:23;;;;;;;3.20;1.65;;;26.60;1.00;;;;;;5110771;28;20039;-45
2022/07/31 01:59:52;;;;;;;2.03;1.58;;;26.60;1.00;;;;;;5109808;28;20015;-45
2022/07/31 02:02:19;;;;;;;2.42;1.35;;;26.60;1.00;;;;;;5113311;28;20072;-45
2022/07/31 02:04:46;;;;;;;1.73;1.20;;;26.60;1.00;;;;;;5113465;28;20020;-45
2022/07/31 02:07:13;;;;;;;2.15;1.40;;;26.50;1.00;;;;;;5114543;28;20027;-47
2022/07/31 02:09:41;;;;;;;4.40;2.13;;;26.50;1.00;;;;;;5114368;28;20346;-50
2022/07/31 02:12:08;;;;;;;1.40;1.30;;;26.50;1.00;;;;;;5112229;28;20047;-47
2022/07/31 02:14:35;;;;;;;2.55;1.15;;;26.50;1.00;;;;;;5113733;28;20035;-47
2022/07/31 02:17:01;;;;;;;2.00;1.35;;;26.40;1.00;;;;;;5112584;28;20027;-48
2022/07/31 02:19:28;;;;;;;2.70;1.50;;;26.40;1.00;;;;;;5112354;28;20027;-49
2022/07/31 02:21:54;;;;;;;1.48;1.38;;;26.40;1.00;;;;;;5109153;28;20024;-51
2022/07/31 02:24:21;;;;;;;2.90;1.60;;;26.40;1.00;;;;;;5114300;28;20053;-50
2022/07/31 02:26:47;;;;;;;1.70;1.20;;;26.40;1.00;;;;;;5109664;28;20026;-48
2022/07/31 02:29:17;;;;;;;1.08;1.08;;;26.40;1.00;;;;;;5114345;28;20431;-49
2022/07/31 02:31:44;;;;;;;1.17;1.08;;;26.40;1.00;;;;;;5113195;28;20034;-48
2022/07/31 02:34:13;;;;;;;2.40;1.02;;;26.40;1.00;;;;;;5114021;28;20437;-47
2022/07/31 02:36:40;;;;;;;1.52;1.42;;;26.30;1.00;;;;;;5113063;28;20027;-47
2022/07/31 02:39:07;;;;;;;1.55;1.45;;;26.30;1.00;;;;;;5114040;28;20032;-49
2022/07/31 02:41:34;;;;;;;1.45;0.90;;;26.30;1.00;;;;;;5112574;28;20440;-45
2022/07/31 02:44:01;;;;;;;2.15;1.67;;;26.30;1.00;;;;;;5103024;28;20023;-47
2022/07/31 02:46:27;;;;;;;1.90;1.55;;;26.30;1.00;;;;;;5112825;28;20028;-46
2022/07/31 02:48:54;;;;;;;1.65;1.35;;;26.30;1.00;;;;;;5113649;28;20023;-45
2022/07/31 02:51:20;;;;;;;1.65;1.55;;;26.20;1.00;;;;;;5112861;28;20070;-45
2022/07/31 02:53:46;;;;;;;1.85;1.38;;;26.20;1.00;;;;;;5113299;28;20027;-48
2022/07/31 02:56:12;;;;;;;1.77;1.30;;;26.20;1.00;;;;;;5112781;28;20024;-48
2022/07/31 02:58:40;;;;;;;3.40;1.67;;;26.20;1.00;;;;;;5113291;28;20027;-45
2022/07/31 03:01:07;;;;;;;3.80;1.55;;;26.20;1.00;;;;;;5112435;28;20499;-45
2022/07/31 03:03:33;;;;;;;3.28;1.17;;;26.20;1.00;;;;;;5113518;28;20090;-46
2022/07/31 03:05:58;;;;;;;3.05;1.10;;;26.20;1.00;;;;;;5111511;28;20131;-44
2022/07/31 03:08:25;;;;;;;3.00;1.50;;;26.20;1.00;;;;;;5113165;28;20031;-45
2022/07/31 03:10:51;;;;;;;1.67;1.00;;;26.20;1.00;;;;;;5111967;28;20050;-48
2022/07/31 03:13:18;;;;;;;2.40;1.10;;;26.20;1.00;;;;;;5112230;28;20465;-46
2022/07/31 03:15:45;;;;;;;3.33;1.33;;;26.10;1.00;;;;;;5109903;28;20028;-48
2022/07/31 03:18:13;;;;;;;1.05;1.02;;;26.10;1.00;;;;;;5113453;28;20063;-45
2022/07/31 03:20:41;;;;;;;2.30;1.15;;;26.10;1.00;;;;;;5112114;28;20073;-45
2022/07/31 03:23:09;;;;;;;1.23;1.05;;;26.10;1.00;;;;;;5112747;28;20088;-45
2022/07/31 03:25:35;;;;;;;1.48;1.05;;;26.10;1.00;;;;;;5111813;28;20104;-45
2022/07/31 03:28:01;;;;;;;4.07;1.73;;;26.10;1.00;;;;;;5106361;28;20500;-45
2022/07/31 03:30:26;;;;;;;2.08;1.48;;;26.00;1.00;;;;;;5098020;28;20096;-45
2022/07/31 03:32:53;;;;;;;2.00;1.40;;;26.10;1.00;;;;;;5096514;28;20462;-45
2022/07/31 03:35:19;;;;;;;1.67;1.30;;;26.10;1.00;;;;;;5101307;28;20107;-45
2022/07/31 03:37:45;;;;;;;2.13;1.40;;;26.00;1.00;;;;;;5112492;28;20425;-45
2022/07/31 03:40:11;;;;;;;2.10;1.38;;;26.00;1.00;;;;;;5111671;28;20762;-45
2022/07/31 03:42:36;;;;;;;2.85;1.45;;;26.00;1.00;;;;;;5111963;28;20044;-45
2022/07/31 03:45:04;;;;;;;1.38;1.27;;;26.00;1.00;;;;;;5111262;28;20040;-45
2022/07/31 03:47:30;;;;;;;2.30;1.02;;;25.90;1.00;;;;;;5111621;28;20102;-45
2022/07/31 03:49:56;;;;;;;2.47;1.52;;;25.90;1.00;;;;;;5112940;28;20153;-45
2022/07/31 03:52:23;;;;;;;1.15;1.05;;;25.80;1.00;;;;;;5112576;28;20035;-45
2022/07/31 03:54:48;;;;;;;2.60;1.25;;;25.80;1.00;;;;;;5113226;28;20028;-45
2022/07/31 03:57:15;;;;;;;2.10;1.40;;;25.80;1.00;;;;;;5112760;28;20457;-46
2022/07/31 03:59:42;;;;;;;1.73;1.45;;;25.80;1.00;;;;;;5113223;28;20024;-46
2022/07/31 04:02:09;;;;;;;2.47;1.50;;;25.80;1.00;;;;;;5112250;28;20110;-47
2022/07/31 04:04:36;;;;;;;1.95;1.23;;;25.80;1.00;;;;;;5113106;28;20069;-47
2022/07/31 04:07:02;;;;;;;3.25;1.40;;;25.70;1.00;;;;;;5080417;28;20206;-47
2022/07/31 04:09:28;;;;;;;3.15;1.70;;;25.70;1.00;;;;;;5110482;28;20022;-51
2022/07/31 04:11:54;;;;;;;1.80;1.33;;;25.70;1.00;;;;;;5110216;28;20024;-46
2022/07/31 04:14:20;;;;;;;2.60;1.80;;;25.70;1.00;;;;;;5112161;28;20054;-49
2022/07/31 04:16:45;;;;;;;1.90;1.55;;;25.70;1.00;;;;;;5112478;28;20118;-46
2022/07/31 04:19:11;;;;;;;1.90;1.30;;;25.70;1.00;;;;;;5112633;28;20035;-48
2022/07/31 04:21:36;;;;;;;2.97;1.75;;;25.70;1.00;;;;;;5111716;28;20091;-46
2022/07/31 04:24:02;;;;;;;3.58;1.65;;;25.70;1.00;;;;;;5112137;28;20115;-50
2022/07/31 04:26:28;;;;;;;4.15;1.60;;;25.70;1.00;;;;;;5112149;28;20020;-48
2022/07/31 04:28:54;;;;;;;1.48;1.38;;;25.70;1.00;;;;;;5112687;28;20357;-46
2022/07/31 04:31:19;;;;;;;2.08;1.88;;;25.70;1.00;;;;;;5111696;28;20149;-50
2022/07/31 04:33:45;;;;;;;1.13;1.00;;;25.60;1.00;;;;;;5112507;28;20032;-45
2022/07/31 04:36:10;;;;;;;2.42;1.40;;;25.70;1.00;;;;;;5111455;28;20055;-47
2022/07/31 04:38:36;;;;;;;2.33;1.40;;;25.70;1.00;;;;;;5112393;28;20016;-46
2022/07/31 04:41:02;;;;;;;1.80;1.70;;;25.70;1.00;;;;;;5106976;28;20109;-48
2022/07/31 04:43:27;;;;;;;5.32;1.70;;;25.60;1.00;;;;;;5109498;28;20027;-46
2022/07/31 04:45:53;;;;;;;1.80;1.23;;;25.70;1.00;;;;;;5111693;28;20160;-47
2022/07/31 04:48:18;;;;;;;2.35;1.65;;;25.70;1.00;;;;;;5112339;28;20047;-47
2022/07/31 04:50:44;;;;;;;2.30;2.10;;;25.60;1.00;;;;;;5111509;28;20111;-45
2022/07/31 04:53:10;;;;;;;2.63;2.13;;;25.60;1.00;;;;;;5112179;28;20028;-46
2022/07/31 04:55:36;;;;;;;2.47;2.00;;;25.70;1.00;;;;;;5111136;28;20106;-45
2022/07/31 04:58:01;;;;;;;3.20;1.90;;;25.70;1.00;;;;;;5103996;28;20107;-45
2022/07/31 05:00:27;;;;;;;4.03;1.60;;;25.60;1.00;;;;;;5112170;28;20069;-45
2022/07/31 05:02:53;;;;;;;1.77;1.38;;;25.60;1.00;;;;;;5111213;28;20454;-46
2022/07/31 05:05:19;;;;;;;3.13;1.80;;;25.60;1.00;;;;;;5111221;28;20388;-47
2022/07/31 05:07:44;;;;;;;2.95;1.83;;;25.60;1.00;;;;;;5111175;28;20027;-49
2022/07/31 05:11:21;;;;;;;2.50;1.65;;;25.60;1.00;;;;;;5112519;28;20806;-49
2022/07/31 05:12:56;;;;;;;2.72;1.85;;;25.60;1.00;;;;;;5110624;28;20174;-48
2022/07/31 05:15:21;;;;;;;1.90;1.60;;;25.60;1.00;;;;;;5111896;28;20059;-46
2022/07/31 05:17:47;;;;;;;2.53;1.55;;;25.60;1.00;;;;;;5111579;28;20020;-47
2022/07/31 05:20:12;;;;;;;5.93;1.77;;;25.60;1.00;;;;;;5112244;28;20059;-48
2022/07/31 05:22:38;;;;;;;2.95;2.13;;;25.60;1.00;;;;;;5111112;28;20027;-47
2022/07/31 05:25:04;;;;;;;3.10;1.70;;;25.60;1.00;;;;;;5111803;28;20103;-46
2022/07/31 05:27:29;;;;;;;2.08;1.65;;;25.60;1.00;;;;;;5111106;28;20034;-47
2022/07/31 05:29:55;;;;;;;3.35;1.73;;;25.60;1.00;;;;;;5111890;28;20027;-45
2022/07/31 05:32:21;;;;;;;2.78;2.13;;;25.60;1.00;;;;;;5110973;28;20073;-49
2022/07/31 05:34:47;;;;;;;2.55;1.90;;;25.60;1.00;;;;;;5112716;28;20488;-45
2022/07/31 05:37:12;;;;;;;2.10;1.55;;;25.70;1.00;;;;;;5115234;28;20031;-49
2022/07/31 05:39:38;;;;;;;8.32;2.03;;;25.60;1.00;;;;;;5116067;28;20024;-46
2022/07/31 05:42:03;;;;;;;3.28;2.30;;;25.70;1.00;;;;;;5113949;28;20388;-46
2022/07/31 05:44:29;;;;;;;3.97;2.47;;;25.60;1.00;;;;;;5097554;28;20027;-47
2022/07/31 05:46:55;;;;;;;3.30;3.00;;;25.60;1.00;;;;;;5115001;28;20101;-51
2022/07/31 05:49:21;;;;;;;3.63;2.60;;;25.60;1.00;;;;;;5116028;28;20094;-48
2022/07/31 05:51:52;;;;;;;1.92;1.70;;;25.70;1.00;;;;;;5114641;28;20031;-49
2022/07/31 05:54:18;;;;;;;1.70;1.60;;;25.60;1.00;;;;;;5102625;28;20024;-51
2022/07/31 05:56:44;;;;;;;5.25;2.08;;;25.60;1.00;;;;;;5114891;28;20093;-50
2022/07/31 05:59:09;;;;;;;2.65;1.75;;;25.70;1.00;;;;;;5115415;28;20103;-50
2022/07/31 06:01:35;;;;;;;1.65;1.55;;;25.60;1.00;;;;;;5115033;28;20465;-48
2022/07/31 06:04:01;;;;;;;2.65;1.20;;;25.60;1.00;;;;;;5115304;28;20028;-50
2022/07/31 06:06:27;;;;;;;2.42;1.42;;;25.60;1.00;;;;;;5114523;28;20008;-47
2022/07/31 06:08:53;;;;;;;2.53;1.50;;;25.60;1.00;;;;;;5110119;28;20027;-50
2022/07/31 06:11:18;;;;;;;2.85;1.60;;;25.70;1.00;;;;;;5114601;28;20046;-47
2022/07/31 06:13:44;;;;;;;1.67;1.58;;;25.60;1.00;;;;;;5114264;28;20088;-51
2022/07/31 06:16:14;;;;;;;3.83;1.85;;;25.70;1.00;;;;;;5115334;28;20085;-47
2022/07/31 06:18:40;;;;;;;2.65;1.70;;;25.60;1.00;;;;;;5113314;28;20031;-45
2022/07/31 06:21:06;;;;;;;1.85;1.63;;;25.60;1.00;;;;;;5096858;28;20442;-46
2022/07/31 06:23:31;;;;;;;1.42;1.33;;;25.60;1.00;;;;;;5114585;28;20023;-46
2022/07/31 06:25:57;;;;;;;1.90;1.70;;;25.70;1.00;;;;;;5114939;28;20011;-46
2022/07/31 06:28:23;;;;;;;1.52;1.40;;;25.70;1.00;;;;;;5114143;28;20051;-44
2022/07/31 06:30:48;;;;;;;1.77;1.20;;;25.70;1.00;;;;;;5114777;28;20022;-43
2022/07/31 06:33:14;;;;;;;1.40;1.30;;;25.80;1.00;;;;;;5114099;28;20036;-44
2022/07/31 06:35:40;;;;;;;3.22;1.60;;;25.70;1.00;;;;;;5114877;28;20039;-44
2022/07/31 06:38:06;;;;;;;4.35;1.98;;;25.70;1.00;;;;;;5113918;28;20026;-46
2022/07/31 06:40:31;;;;;;;2.38;1.30;;;25.80;1.00;;;;;;5113810;28;20042;-46
2022/07/31 06:42:57;;;;;;;2.13;1.83;;;25.80;1.00;;;;;;5113781;28;20149;-46
2022/07/31 06:45:23;;;;;;;1.50;1.38;;;25.80;1.00;;;;;;5114789;28;20365;-44
2022/07/31 06:47:49;;;;;;;1.77;1.60;;;25.80;1.00;;;;;;5113368;28;20028;-46
2022/07/31 06:50:14;;;;;;;2.15;1.50;;;25.90;1.00;;;;;;5114493;28;20035;-44
2022/07/31 06:52:40;;;;;;;1.70;1.40;;;25.90;1.00;;;;;;5111654;28;20064;-46
2022/07/31 06:55:07;;;;;;;2.78;1.63;;;25.90;1.00;;;;;;5111803;28;20372;-46
2022/07/31 06:57:33;;;;;;;2.45;1.98;;;25.90;1.00;;;;;;5088687;28;20509;-47
2022/07/31 06:59:58;;;;;;;1.90;1.70;;;26.00;1.00;;;;;;5085548;28;20045;-44
2022/07/31 07:02:24;;;;;;;2.25;1.58;;;26.00;1.00;;;;;;5113625;28;20055;-44
2022/07/31 07:04:49;;;;;;;2.53;1.63;;;26.00;1.00;;;;;;5107783;28;20028;-44
2022/07/31 07:07:15;;;;;;;3.03;1.63;;;26.00;1.00;;;;;;5113630;28;20021;-44
2022/07/31 07:09:41;;;;;;;1.70;1.48;;;26.00;1.00;;;;;;5100042;28;20535;-46
2022/07/31 07:12:07;;;;;;;2.10;1.90;;;26.10;1.00;;;;;;5111529;28;20484;-45
2022/07/31 07:14:32;;;;;;;4.70;2.08;;;26.10;1.00;;;;;;5114023;28;20035;-45
2022/07/31 07:17:02;;;;;;;4.95;3.17;;;26.10;1.00;;;;;;5105315;28;20024;-45
2022/07/31 07:19:28;;;;;;;3.13;2.00;;;26.10;1.00;;;;;;5114201;28;20031;-46
2022/07/31 07:21:53;;;;;;;1.95;1.60;;;26.10;1.00;;;;;;5095031;28;20077;-47
2022/07/31 07:24:19;;;;;;;3.53;2.03;;;26.10;1.00;;;;;;5114225;28;20019;-44
2022/07/31 07:26:44;;;;;;;2.00;1.80;;;26.20;1.00;;;;;;5113770;28;20410;-45
2022/07/31 07:29:10;;;;;;;3.42;2.20;;;26.20;1.00;;;;;;5113018;28;20073;-45
2022/07/31 07:31:36;;;;;;;2.22;1.92;;;26.20;1.00;;;;;;5113652;28;20019;-45
2022/07/31 07:34:04;;;;;;;3.00;2.00;;;26.20;1.00;;;;;;5112687;28;20035;-46
2022/07/31 07:36:31;;;;;;;1.75;1.65;;;26.30;1.00;;;;;;5112784;28;20024;-45
2022/07/31 07:38:56;;;;;;;3.47;2.00;;;26.30;1.00;;;;;;5112856;28;20513;-45
2022/07/31 07:41:23;;;;;;;2.25;2.05;;;26.30;1.00;;;;;;5112542;28;20043;-45
2022/07/31 07:43:49;;;;;;;3.42;2.10;;;26.40;1.00;;;;;;5112805;28;20028;-48
2022/07/31 07:46:15;;;;;;;1.70;1.60;;;26.40;1.00;;;;;;5113489;28;20386;-45
2022/07/31 07:48:40;;;;;;;2.72;1.60;;;26.40;1.00;;;;;;5112764;28;20069;-49
2022/07/31 07:51:06;;;;;;;2.45;1.50;;;26.40;1.00;;;;;;5113326;28;20357;-51
2022/07/31 07:53:31;;;;;;;4.35;1.73;;;26.40;1.00;;;;;;5112657;28;20512;-46
2022/07/31 07:55:57;;;;;;;2.17;1.50;;;26.40;1.00;;;;;;5113414;28;20026;-50
2022/07/31 07:58:23;;;;;;;4.30;2.00;;;26.50;1.00;;;;;;5111626;28;20020;-48
2022/07/31 08:00:48;;;;;;;2.47;1.48;;;26.50;1.00;;;;;;5113440;28;20123;-49
2022/07/31 08:03:15;;;;;;;1.90;1.80;;;26.50;1.00;;;;;;5092947;28;20481;-48
2022/07/31 08:05:41;;;;;;;3.58;1.40;;;26.50;1.00;;;;;;5113516;28;20102;-46
2022/07/31 08:08:07;;;;;;;1.73;1.45;;;26.60;1.00;;;;;;5112121;28;20115;-46
2022/07/31 08:10:32;;;;;;;1.67;1.58;;;26.60;1.00;;;;;;5111178;28;20023;-51
2022/07/31 08:12:58;;;;;;;2.03;1.70;;;26.70;1.00;;;;;;5112199;28;20040;-47
2022/07/31 08:15:24;;;;;;;6.68;1.85;;;26.70;1.00;;;;;;5112833;28;20145;-48
2022/07/31 08:17:50;;;;;;;2.13;1.88;;;26.70;1.00;;;;;;5112224;28;20106;-48
2022/07/31 08:20:16;;;;;;;2.13;1.80;;;26.70;1.00;;;;;;5112913;28;20145;-44
2022/07/31 08:22:41;;;;;;;3.15;2.00;;;26.80;1.00;;;;;;5110989;28;20028;-46
2022/07/31 08:25:07;;;;;;;2.38;2.17;;;26.80;1.00;;;;;;5112810;28;20407;-46
2022/07/31 08:27:33;;;;;;;2.40;2.20;;;26.80;1.00;;;;;;5112311;28;20039;-49
2022/07/31 08:30:00;;;;;;;4.70;2.35;;;26.90;1.00;;;;;;5112801;28;20471;-47
2022/07/31 08:32:27;;;;;;;3.13;2.15;;;26.90;1.00;;;;;;5111868;28;20480;-48
2022/07/31 08:34:54;;;;;;;2.30;2.10;;;27.00;1.00;;;;;;5112550;28;20168;-45
2022/07/31 08:37:20;;;;;;;2.33;2.15;;;27.00;1.00;;;;;;5111114;28;20027;-47
2022/07/31 08:39:48;;;;;;;4.13;2.00;;;27.10;1.00;;;;;;5112391;28;20522;-46
2022/07/31 08:42:14;;;;;;;2.13;2.00;;;27.10;1.00;;;;;;5111819;28;20134;-46
2022/07/31 08:44:42;;;;;;;2.75;2.50;;;27.10;1.00;;;;;;5079978;28;20024;-45
2022/07/31 08:47:10;;;;;;;3.13;2.67;;;27.10;1.00;;;;;;5112423;28;20477;-47
2022/07/31 08:49:40;;;;;;;4.28;2.83;;;27.20;1.00;;;;;;5111844;28;20386;-47
2022/07/31 08:52:09;;;;;;;3.25;2.55;;;27.20;1.00;;;;;;5112493;28;20088;-50
2022/07/31 08:54:35;;;;;;;3.22;2.63;;;27.20;1.00;;;;;;5111685;28;20385;-51
2022/07/31 08:57:02;;;;;;;3.67;2.80;;;27.30;1.00;;;;;;5112238;28;20035;-45
2022/07/31 08:59:28;;;;;;;2.53;2.33;;;27.30;1.00;;;;;;5093284;28;20023;-49
2022/07/31 09:01:55;;;;;;;2.40;2.20;;;27.30;1.00;;;;;;5111246;28;20120;-47
2022/07/31 09:04:22;;;;;;;2.92;2.40;;;27.40;1.00;;;;;;5110775;28;20115;-47
2022/07/31 09:06:48;;;;;;;3.28;2.97;;;27.40;1.00;;;;;;5111989;28;20523;-49
2022/07/31 09:09:16;;;;;;;2.65;2.45;;;27.40;1.00;;;;;;5110195;28;20156;-45
2022/07/31 09:11:49;;;;;;;6.28;2.40;;;27.40;1.00;;;;;;5111955;28;20035;-45
2022/07/31 09:14:25;;;;;;;2.15;1.98;;;27.40;1.00;;;;;;5111814;28;20042;-48
2022/07/31 09:16:53;;;;;;;2.97;2.25;;;27.50;1.00;;;;;;5111954;28;20035;-45
2022/07/31 09:19:19;;;;;;;2.60;2.40;;;27.60;1.00;;;;;;5111371;28;20027;-45
2022/07/31 09:21:45;;;;;;;2.28;2.10;;;27.60;1.00;;;;;;5111960;28;20027;-46
2022/07/31 09:24:25;;;;;;;3.40;2.58;;;27.60;1.00;;;;;;5111071;28;20024;-47
2022/07/31 09:27:00;;;;;;;2.95;2.40;;;27.70;1.00;;;;;;5112140;28;20064;-47
2022/07/31 09:29:34;;;;;;;3.50;2.50;;;27.70;1.00;;;;;;5111015;28;20031;-48
2022/07/31 09:32:19;;;;;;;2.80;2.40;;;27.80;1.00;;;;;;5110526;28;20116;-47
2022/07/31 09:34:46;;;;;;;2.33;2.00;;;27.70;1.00;;;;;;5110877;28;20027;-45
2022/07/31 09:37:14;;;;;;;3.28;2.70;;;27.70;1.00;;;;;;5111855;28;20036;-45
2022/07/31 09:39:41;;;;;;;3.45;2.17;;;27.80;1.00;;;;;;5110666;28;20028;-48
2022/07/31 09:42:07;;;;;;;2.22;2.13;;;27.90;1.00;;;;;;5111458;28;20047;-47
2022/07/31 09:44:44;;;;;;;2.60;2.40;;;27.90;1.00;;;;;;5110914;28;20088;-49
2022/07/31 09:47:25;;;;;;;2.72;1.98;;;27.80;1.00;;;;;;5093604;28;20110;-48
2022/07/31 09:50:03;;;;;;;3.17;2.30;;;27.80;1.00;;;;;;5108459;28;20485;-49
2022/07/31 09:52:30;;;;;;;3.00;2.70;;;27.90;1.00;;;;;;5111852;28;20042;-46
2022/07/31 09:55:04;;;;;;;3.65;2.80;;;28.00;1.00;;;;;;5110649;28;20028;-48
2022/07/31 09:57:29;;;;;;;2.88;2.22;;;28.10;1.00;;;;;;5111823;28;20055;-49
2022/07/31 09:59:55;;;;;;;2.70;2.50;;;28.10;1.00;;;;;;5109917;28;20488;-45
2022/07/31 10:02:24;;;;;;;5.07;2.47;;;28.20;1.00;;;;;;5111522;28;20019;-45
2022/07/31 10:04:53;;;;;;;5.13;2.20;;;28.30;1.00;;;;;;5110600;28;20030;-45
2022/07/31 10:07:18;;;;;;;2.75;2.55;;;28.40;1.00;;;;;;5111490;28;20019;-48
2022/07/31 10:09:46;;;;;;;5.45;2.47;;;28.40;1.00;;;;;;5109994;28;20481;-45
2022/07/31 10:12:15;;;;;;;3.03;2.10;;;28.30;1.00;;;;;;5111355;28;20030;-49
2022/07/31 10:14:43;;;;;;;2.97;2.40;;;28.40;1.00;;;;;;5110821;28;20039;-44
2022/07/31 10:17:10;;;;;;;2.83;2.60;;;28.40;1.00;;;;;;5111454;28;20096;-45
2022/07/31 10:19:39;;;;;;;2.78;2.58;;;28.50;1.00;;;;;;5110472;28;20027;-47
2022/07/31 10:22:08;;;;;;;3.00;2.70;;;28.50;1.00;;;;;;5107159;28;20043;-45
2022/07/31 10:24:39;;;;;;;2.67;2.47;;;28.50;1.00;;;;;;5104553;28;20525;-45
2022/07/31 10:27:05;;;;;;;3.20;2.30;;;28.60;1.00;;;;;;5109416;28;20050;-50
2022/07/31 10:29:32;;;;;;;4.30;2.97;;;28.70;1.00;;;;;;5114152;28;20027;-51
2022/07/31 10:31:57;;;;;;;3.05;2.50;;;28.80;1.00;;;;;;5114888;28;20092;-49
2022/07/31 10:34:25;;;;;;;2.78;2.38;;;28.90;1.00;;;;;;5114281;28;20035;-47
2022/07/31 10:36:54;;;;;;;2.55;2.35;;;28.90;1.00;;;;;;5114542;28;20481;-45
2022/07/31 10:39:51;;;;;;;3.40;3.20;;;28.90;1.00;;;;;;5072948;28;20039;-45
2022/07/31 10:42:35;;;;;;;2.78;2.50;;;29.00;1.00;;;;;;5081686;28;20148;-45
2022/07/31 10:45:09;;;;;;;2.30;2.20;;;29.20;1.00;;;;;;5109920;28;20039;-45
2022/07/31 10:47:35;;;;;;;2.63;2.33;;;29.10;1.00;;;;;;5113857;28;20024;-46
2022/07/31 10:50:01;;;;;;;2.92;2.72;;;29.20;1.00;;;;;;5114667;28;20042;-45
2022/07/31 10:52:36;;;;;;;3.83;2.20;;;29.40;1.00;;;;;;5112767;28;20187;-45
2022/07/31 10:55:12;;;;;;;2.03;1.88;;;29.50;1.00;;;;;;5114649;28;20473;-45
2022/07/31 10:57:38;;;;;;;2.13;2.03;;;29.60;1.00;;;;;;5101389;28;20115;-50
2022/07/31 11:00:34;;;;;;;2.42;1.98;;;29.70;1.00;;;;;;5114458;28;20110;-45
2022/07/31 11:03:10;;;;;;;1.70;1.60;;;29.60;1.00;;;;;;5088888;28;20023;-46
2022/07/31 11:05:36;;;;;;;2.33;2.03;;;29.70;1.00;;;;;;5113600;28;20496;-49
2022/07/31 11:08:06;;;;;;;2.17;1.90;;;29.60;1.00;;;;;;5113649;28;20023;-48
2022/07/31 11:10:33;;;;;;;2.20;1.67;;;29.60;1.00;;;;;;5114239;28;20045;-48
2022/07/31 11:13:11;;;;;;;3.10;1.80;;;29.70;1.00;;;;;;5113381;28;20027;-48
2022/07/31 11:15:37;;;;;;;2.97;2.00;;;29.80;1.00;;;;;;5114377;28;20024;-48
2022/07/31 11:18:14;;;;;;;2.10;2.00;;;30.00;1.00;;;;;;5113437;28;20107;-48
2022/07/31 11:20:45;;;;;;;3.17;2.30;;;30.10;1.00;;;;;;5094744;28;20477;-46
2022/07/31 11:23:14;;;;;;;1.75;1.65;;;30.30;1.00;;;;;;5113456;28;20016;-45
2022/07/31 11:25:40;;;;;;;3.92;1.92;;;30.50;1.00;;;;;;5114157;28;20027;-46
2022/07/31 11:28:23;;;;;;;2.25;2.15;;;30.60;1.00;;;;;;5113072;28;20020;-51
2022/07/31 11:30:53;;;;;;;2.20;1.80;;;30.60;1.00;;;;;;5114231;28;20043;-51
2022/07/31 11:33:33;;;;;;;2.28;2.15;;;30.60;1.00;;;;;;5099912;28;20027;-50
2022/07/31 11:36:15;;;;;;;2.30;2.10;;;30.80;1.00;;;;;;5113868;28;20024;-47
2022/07/31 11:38:43;;;;;;;2.25;2.13;;;30.90;1.00;;;;;;5102221;28;20027;-47
2022/07/31 11:41:09;;;;;;;2.05;1.95;;;31.00;1.00;;;;;;5113369;28;20027;-48
2022/07/31 11:43:38;;;;;;;2.13;2.03;;;31.20;1.00;;;;;;5100873;28;20043;-45
2022/07/31 11:46:04;;;;;;;2.05;1.80;;;31.40;1.00;;;;;;5113851;28;20032;-46
2022/07/31 11:48:31;;;;;;;3.63;2.28;;;31.80;1.00;;;;;;5112454;28;20012;-45
2022/07/31 11:50:58;;;;;;;2.55;2.10;;;31.90;1.00;;;;;;5112562;28;20035;-45
2022/07/31 11:53:24;;;;;;;3.53;2.28;;;32.20;1.00;;;;;;5094369;28;20060;-45
2022/07/31 11:55:52;;;;;;;2.30;2.13;;;32.60;1.00;;;;;;5113538;28;20028;-46
2022/07/31 11:58:22;;;;;;;2.80;2.67;;;33.20;1.00;;;;;;5112613;28;20019;-45
2022/07/31 12:00:53;;;;;;;3.20;2.88;;;33.70;1.00;;;;;;5113291;28;20473;-46
2022/07/31 12:03:22;;;;;;;3.70;2.88;;;33.90;1.00;;;;;;5112274;28;20538;-45
2022/07/31 12:05:51;;;;;;;3.67;3.10;;;34.00;1.00;;;;;;5113511;28;20110;-46
2022/07/31 12:08:17;;;;;;;3.50;3.20;;;34.30;1.00;;;;;;5112498;28;20099;-45
2022/07/31 12:10:44;;;;;;;3.13;2.72;;;35.10;1.00;;;;;;5113348;28;20032;-47
2022/07/31 12:13:15;;;;;;;2.92;2.72;;;36.50;1.00;;;;;;5112264;28;20065;-51
2022/07/31 12:15:51;;;;;;;3.40;2.80;;;37.60;1.00;;;;;;5113096;28;20379;-45
2022/07/31 12:18:17;;;;;;;3.00;2.80;;;39.30;1.00;;;;;;5109817;28;20019;-46
2022/07/31 12:20:51;;;;;;;3.15;2.95;;;40.60;1.00;;;;;;5112967;28;20481;-46
2022/07/31 12:23:17;;;;;;;3.17;2.90;;;42.40;1.00;;;;;;5112305;28;20136;-46
2022/07/31 12:25:45;;;;;;;3.72;3.50;;;44.10;1.00;;;;;;5112898;28;20067;-46
2022/07/31 12:28:13;;;;;;;3.22;3.13;;;44.50;1.00;;;;;;5112094;28;20112;-48
2022/07/31 12:30:39;;;;;;;3.75;3.45;;;43.70;1.00;;;;;;5112588;28;20131;-46
2022/07/31 12:33:10;;;;;;;3.67;3.47;;;42.70;1.00;;;;;;5111783;28;20042;-45
2022/07/31 12:35:40;;;;;;;3.50;3.40;;;41.10;1.00;;;;;;5094409;28;20028;-48
2022/07/31 12:38:06;;;;;;;3.60;3.40;;;39.50;1.00;;;;;;5111557;28;20409;-49
2022/07/31 12:40:32;;;;;;;4.07;3.83;;;38.80;1.00;;;;;;5112653;28;20164;-49
2022/07/31 12:42:59;;;;;;;4.00;3.70;;;38.80;1.00;;;;;;5111070;28;20050;-46
2022/07/31 12:45:33;;;;;;;4.07;3.70;;;39.00;1.00;;;;;;5111902;28;20387;-47
2022/07/31 12:47:59;;;;;;;4.15;3.60;;;39.00;1.00;;;;;;5111390;28;20036;-47
2022/07/31 12:50:27;;;;;;;3.80;3.60;;;38.50;1.00;;;;;;5112387;28;20027;-46
2022/07/31 12:52:55;;;;;;;4.18;3.90;;;38.30;1.00;;;;;;5112311;28;20050;-48
2022/07/31 12:55:21;;;;;;;4.70;4.40;;;38.00;1.00;;;;;;5097923;28;20096;-46
2022/07/31 12:57:47;;;;;;;7.05;3.55;;;37.60;1.00;;;;;;5112528;28;20031;-50
2022/07/31 13:00:13;;;;;;;3.80;3.70;;;37.70;1.00;;;;;;5111344;28;20035;-46